sensor_id;sensor_type;location;lat;lon;timestamp;temperature;humidity
70986;DHT22;58645;43.068;25.610;2022-11-11T00:00:12;7.40;99.90
70986;DHT22;58645;43.068;25.610;2022-11-11T00:02:38;7.40;99.90
70986;DHT22;58645;43.068;25.610;2022-11-11T00:05:04;7.40;99.90
70986;DHT22;58645;43.068;25.610;2022-11-11T00:07:30;7.40;99.90
70986;DHT22;58645;43.068;25.610;2022-11-11T00:09:56;7.30;99.90
70986;DHT22;58645;43.068;25.610;2022-11-11T00:12:21;7.30;99.90
70986;DHT22;58645;43.068;25.610;2022-11-11T00:14:47;7.20;99.90
70986;DHT22;58645;43.068;25.610;2022-11-11T00:17:13;7.10;99.90
70986;DHT22;58645;43.068;25.610;2022-11-11T00:19:57;7.10;99.90
70986;DHT22;58645;43.068;25.610;2022-11-11T00:22:41;7.10;99.90
70986;DHT22;58645;43.068;25.610;2022-11-11T00:25:25;7.00;99.90
70986;DHT22;58645;43.068;25.610;2022-11-11T00:27:52;7.00;99.90
70986;DHT22;58645;43.068;25.610;2022-11-11T00:30:18;7.00;99.90
70986;DHT22;58645;43.068;25.610;2022-11-11T00:32:44;6.90;99.90
70986;DHT22;58645;43.068;25.610;2022-11-11T00:35:09;6.90;99.90
70986;DHT22;58645;43.068;25.610;2022-11-11T00:37:54;6.80;99.90
70986;DHT22;58645;43.068;25.610;2022-11-11T00:40:20;6.80;99.90
70986;DHT22;58645;43.068;25.610;2022-11-11T00:42:45;6.80;99.90
70986;DHT22;58645;43.068;25.610;2022-11-11T00:45:11;6.90;99.90
70986;DHT22;58645;43.068;25.610;2022-11-11T00:47:37;6.90;99.90
70986;DHT22;58645;43.068;25.610;2022-11-11T00:50:26;6.90;99.90
70986;DHT22;58645;43.068;25.610;2022-11-11T00:53:16;6.90;99.90
70986;DHT22;58645;43.068;25.610;2022-11-11T00:55:42;7.00;99.90
70986;DHT22;58645;43.068;25.610;2022-11-11T00:58:08;7.00;99.90
70986;DHT22;58645;43.068;25.610;2022-11-11T01:00:34;7.00;99.90
70986;DHT22;58645;43.068;25.610;2022-11-11T01:03:00;7.00;99.90
70986;DHT22;58645;43.068;25.610;2022-11-11T01:05:26;7.20;99.90
70986;DHT22;58645;43.068;25.610;2022-11-11T01:07:52;7.00;99.90
70986;DHT22;58645;43.068;25.610;2022-11-11T01:10:19;6.90;99.90
70986;DHT22;58645;43.068;25.610;2022-11-11T01:13:05;6.90;99.90
70986;DHT22;58645;43.068;25.610;2022-11-11T01:15:37;6.80;99.90
70986;DHT22;58645;43.068;25.610;2022-11-11T01:18:03;6.80;99.90
70986;DHT22;58645;43.068;25.610;2022-11-11T01:20:29;6.70;99.90
70986;DHT22;58645;43.068;25.610;2022-11-11T01:22:55;6.70;99.90
70986;DHT22;58645;43.068;25.610;2022-11-11T01:25:21;6.70;99.90
70986;DHT22;58645;43.068;25.610;2022-11-11T01:27:47;6.70;99.90
70986;DHT22;58645;43.068;25.610;2022-11-11T01:30:13;6.60;99.90
70986;DHT22;58645;43.068;25.610;2022-11-11T01:32:39;6.60;99.90
70986;DHT22;58645;43.068;25.610;2022-11-11T01:35:06;6.60;99.90
70986;DHT22;58645;43.068;25.610;2022-11-11T01:37:32;6.70;99.90
70986;DHT22;58645;43.068;25.610;2022-11-11T01:39:58;6.70;99.90
70986;DHT22;58645;43.068;25.610;2022-11-11T01:42:24;6.60;99.90
70986;DHT22;58645;43.068;25.610;2022-11-11T01:44:50;6.50;99.90
70986;DHT22;58645;43.068;25.610;2022-11-11T01:47:17;6.50;99.90
70986;DHT22;58645;43.068;25.610;2022-11-11T01:49:58;6.50;99.90
70986;DHT22;58645;43.068;25.610;2022-11-11T01:52:32;6.50;99.90
70986;DHT22;58645;43.068;25.610;2022-11-11T02:00:07;6.60;99.90
70986;DHT22;58645;43.068;25.610;2022-11-11T02:05:04;6.60;99.90
70986;DHT22;58645;43.068;25.610;2022-11-11T02:07:49;6.60;99.90
70986;DHT22;58645;43.068;25.610;2022-11-11T02:10:21;6.60;99.90
70986;DHT22;58645;43.068;25.610;2022-11-11T02:12:48;6.50;99.90
70986;DHT22;58645;43.068;25.610;2022-11-11T02:15:33;6.50;99.90
70986;DHT22;58645;43.068;25.610;2022-11-11T02:17:58;6.40;99.90
70986;DHT22;58645;43.068;25.610;2022-11-11T02:20:26;6.40;99.90
70986;DHT22;58645;43.068;25.610;2022-11-11T02:25:28;6.40;99.90
70986;DHT22;58645;43.068;25.610;2022-11-11T02:28:00;6.30;99.90
70986;DHT22;58645;43.068;25.610;2022-11-11T02:30:27;6.30;99.90
70986;DHT22;58645;43.068;25.610;2022-11-11T02:32:53;6.30;99.90
70986;DHT22;58645;43.068;25.610;2022-11-11T02:35:28;6.30;99.90
70986;DHT22;58645;43.068;25.610;2022-11-11T02:37:54;6.20;99.90
70986;DHT22;58645;43.068;25.610;2022-11-11T02:40:32;6.20;99.90
70986;DHT22;58645;43.068;25.610;2022-11-11T02:42:58;6.10;99.90
70986;DHT22;58645;43.068;25.610;2022-11-11T02:45:24;6.10;99.90
70986;DHT22;58645;43.068;25.610;2022-11-11T02:47:50;6.10;99.90
70986;DHT22;58645;43.068;25.610;2022-11-11T02:50:15;6.10;99.90
70986;DHT22;58645;43.068;25.610;2022-11-11T02:52:41;6.00;99.90
70986;DHT22;58645;43.068;25.610;2022-11-11T02:55:07;6.00;99.90
70986;DHT22;58645;43.068;25.610;2022-11-11T02:57:33;6.00;99.90
70986;DHT22;58645;43.068;25.610;2022-11-11T03:00:00;5.90;99.90
70986;DHT22;58645;43.068;25.610;2022-11-11T03:02:27;5.80;99.90
70986;DHT22;58645;43.068;25.610;2022-11-11T03:04:57;5.80;99.90
70986;DHT22;58645;43.068;25.610;2022-11-11T03:07:24;5.70;99.90
70986;DHT22;58645;43.068;25.610;2022-11-11T03:09:50;5.70;99.90
70986;DHT22;58645;43.068;25.610;2022-11-11T03:12:16;5.60;99.90
70986;DHT22;58645;43.068;25.610;2022-11-11T03:14:41;5.60;99.90
70986;DHT22;58645;43.068;25.610;2022-11-11T03:17:08;5.60;99.90
70986;DHT22;58645;43.068;25.610;2022-11-11T03:19:52;5.60;99.90
70986;DHT22;58645;43.068;25.610;2022-11-11T03:22:38;5.60;99.90
70986;DHT22;58645;43.068;25.610;2022-11-11T03:25:04;5.60;99.90
70986;DHT22;58645;43.068;25.610;2022-11-11T03:27:48;5.60;99.90
70986;DHT22;58645;43.068;25.610;2022-11-11T03:30:14;5.60;99.90
70986;DHT22;58645;43.068;25.610;2022-11-11T03:32:40;5.60;99.90
70986;DHT22;58645;43.068;25.610;2022-11-11T03:35:05;5.60;99.90
70986;DHT22;58645;43.068;25.610;2022-11-11T03:37:31;5.50;99.90
70986;DHT22;58645;43.068;25.610;2022-11-11T03:40:16;5.50;99.90
70986;DHT22;58645;43.068;25.610;2022-11-11T03:42:41;5.40;99.90
70986;DHT22;58645;43.068;25.610;2022-11-11T03:45:08;5.40;99.90
70986;DHT22;58645;43.068;25.610;2022-11-11T03:47:34;5.30;99.90
70986;DHT22;58645;43.068;25.610;2022-11-11T03:49:59;5.40;99.90
70986;DHT22;58645;43.068;25.610;2022-11-11T03:52:25;5.40;99.90
70986;DHT22;58645;43.068;25.610;2022-11-11T03:54:51;5.40;99.90
70986;DHT22;58645;43.068;25.610;2022-11-11T03:57:16;5.40;99.90
70986;DHT22;58645;43.068;25.610;2022-11-11T03:59:57;5.40;99.90
70986;DHT22;58645;43.068;25.610;2022-11-11T04:02:23;5.50;99.90
70986;DHT22;58645;43.068;25.610;2022-11-11T04:05:07;5.50;99.90
70986;DHT22;58645;43.068;25.610;2022-11-11T04:07:51;5.60;99.90
70986;DHT22;58645;43.068;25.610;2022-11-11T04:10:36;5.60;99.90
70986;DHT22;58645;43.068;25.610;2022-11-11T04:13:02;5.70;99.90
70986;DHT22;58645;43.068;25.610;2022-11-11T04:15:47;5.70;99.90
70986;DHT22;58645;43.068;25.610;2022-11-11T04:18:32;5.70;99.90
70986;DHT22;58645;43.068;25.610;2022-11-11T04:21:17;5.80;99.90
70986;DHT22;58645;43.068;25.610;2022-11-11T04:24:02;5.70;99.90
70986;DHT22;58645;43.068;25.610;2022-11-11T04:26:28;5.60;99.90
70986;DHT22;58645;43.068;25.610;2022-11-11T04:28:53;5.60;99.90
70986;DHT22;58645;43.068;25.610;2022-11-11T04:31:37;5.70;99.90
70986;DHT22;58645;43.068;25.610;2022-11-11T04:34:26;5.70;99.90
70986;DHT22;58645;43.068;25.610;2022-11-11T04:36:52;5.70;99.90
70986;DHT22;58645;43.068;25.610;2022-11-11T04:39:17;5.70;99.90
70986;DHT22;58645;43.068;25.610;2022-11-11T04:42:01;5.80;99.90
70986;DHT22;58645;43.068;25.610;2022-11-11T04:44:27;5.90;99.90
70986;DHT22;58645;43.068;25.610;2022-11-11T04:47:11;6.00;99.90
70986;DHT22;58645;43.068;25.610;2022-11-11T04:49:37;6.20;99.90
70986;DHT22;58645;43.068;25.610;2022-11-11T04:52:03;6.30;99.90
70986;DHT22;58645;43.068;25.610;2022-11-11T04:54:47;6.40;99.90
70986;DHT22;58645;43.068;25.610;2022-11-11T04:57:31;6.40;99.90
70986;DHT22;58645;43.068;25.610;2022-11-11T04:59:57;6.50;99.90
70986;DHT22;58645;43.068;25.610;2022-11-11T05:02:23;6.60;99.90
70986;DHT22;58645;43.068;25.610;2022-11-11T05:05:07;6.60;99.90
70986;DHT22;58645;43.068;25.610;2022-11-11T05:07:33;6.70;99.90
70986;DHT22;58645;43.068;25.610;2022-11-11T05:10:18;6.70;99.90
70986;DHT22;58645;43.068;25.610;2022-11-11T05:12:46;6.90;99.90
70986;DHT22;58645;43.068;25.610;2022-11-11T05:15:12;6.90;99.90
70986;DHT22;58645;43.068;25.610;2022-11-11T05:17:57;7.00;99.90
70986;DHT22;58645;43.068;25.610;2022-11-11T05:20:41;6.90;99.90
70986;DHT22;58645;43.068;25.610;2022-11-11T05:23:25;7.00;99.90
70986;DHT22;58645;43.068;25.610;2022-11-11T05:26:14;7.10;99.90
70986;DHT22;58645;43.068;25.610;2022-11-11T05:28:39;7.10;99.90
70986;DHT22;58645;43.068;25.610;2022-11-11T05:31:05;7.10;99.90
70986;DHT22;58645;43.068;25.610;2022-11-11T05:33:31;7.10;99.90
70986;DHT22;58645;43.068;25.610;2022-11-11T05:35:56;7.10;99.90
70986;DHT22;58645;43.068;25.610;2022-11-11T05:38:22;7.10;99.90
70986;DHT22;58645;43.068;25.610;2022-11-11T05:40:48;7.20;99.90
70986;DHT22;58645;43.068;25.610;2022-11-11T05:43:14;7.20;99.90
70986;DHT22;58645;43.068;25.610;2022-11-11T05:45:42;7.20;99.90
70986;DHT22;58645;43.068;25.610;2022-11-11T05:48:08;7.20;99.90
70986;DHT22;58645;43.068;25.610;2022-11-11T05:50:34;7.20;99.90
70986;DHT22;58645;43.068;25.610;2022-11-11T05:53:02;7.20;99.90
70986;DHT22;58645;43.068;25.610;2022-11-11T05:55:28;7.20;99.90
70986;DHT22;58645;43.068;25.610;2022-11-11T05:57:57;7.30;99.90
70986;DHT22;58645;43.068;25.610;2022-11-11T06:00:23;7.30;99.90
70986;DHT22;58645;43.068;25.610;2022-11-11T06:02:49;7.40;99.90
70986;DHT22;58645;43.068;25.610;2022-11-11T06:05:14;7.50;99.90
70986;DHT22;58645;43.068;25.610;2022-11-11T06:07:40;7.50;99.90
70986;DHT22;58645;43.068;25.610;2022-11-11T06:10:07;7.60;99.90
70986;DHT22;58645;43.068;25.610;2022-11-11T06:12:52;7.60;99.90
70986;DHT22;58645;43.068;25.610;2022-11-11T06:15:37;7.70;99.90
70986;DHT22;58645;43.068;25.610;2022-11-11T06:18:03;7.70;99.90
70986;DHT22;58645;43.068;25.610;2022-11-11T06:20:59;7.80;99.90
70986;DHT22;58645;43.068;25.610;2022-11-11T06:23:26;7.80;99.90
70986;DHT22;58645;43.068;25.610;2022-11-11T06:25:52;7.80;99.90
70986;DHT22;58645;43.068;25.610;2022-11-11T06:28:51;7.90;99.90
70986;DHT22;58645;43.068;25.610;2022-11-11T06:31:22;8.00;99.90
70986;DHT22;58645;43.068;25.610;2022-11-11T06:33:48;8.10;99.90
70986;DHT22;58645;43.068;25.610;2022-11-11T06:36:16;8.10;99.90
70986;DHT22;58645;43.068;25.610;2022-11-11T06:38:43;8.10;99.90
70986;DHT22;58645;43.068;25.610;2022-11-11T06:41:12;8.10;99.90
70986;DHT22;58645;43.068;25.610;2022-11-11T06:43:42;8.20;99.90
70986;DHT22;58645;43.068;25.610;2022-11-11T06:47:12;8.20;99.90
70986;DHT22;58645;43.068;25.610;2022-11-11T06:49:38;8.20;99.90
70986;DHT22;58645;43.068;25.610;2022-11-11T06:52:04;8.30;99.90
70986;DHT22;58645;43.068;25.610;2022-11-11T06:54:30;8.30;99.90
70986;DHT22;58645;43.068;25.610;2022-11-11T06:56:55;8.40;99.90
70986;DHT22;58645;43.068;25.610;2022-11-11T06:59:21;8.40;99.90
70986;DHT22;58645;43.068;25.610;2022-11-11T07:01:49;8.50;99.90
70986;DHT22;58645;43.068;25.610;2022-11-11T07:04:17;8.50;99.90
70986;DHT22;58645;43.068;25.610;2022-11-11T07:06:43;8.60;99.90
70986;DHT22;58645;43.068;25.610;2022-11-11T07:09:09;8.60;99.90
70986;DHT22;58645;43.068;25.610;2022-11-11T07:11:36;8.60;99.90
70986;DHT22;58645;43.068;25.610;2022-11-11T07:14:01;8.60;99.90
70986;DHT22;58645;43.068;25.610;2022-11-11T07:16:28;8.60;99.90
70986;DHT22;58645;43.068;25.610;2022-11-11T07:18:53;8.60;99.90
70986;DHT22;58645;43.068;25.610;2022-11-11T07:21:19;8.60;99.90
70986;DHT22;58645;43.068;25.610;2022-11-11T07:23:45;8.60;99.90
70986;DHT22;58645;43.068;25.610;2022-11-11T07:26:14;8.50;99.90
70986;DHT22;58645;43.068;25.610;2022-11-11T07:28:44;8.50;99.90
70986;DHT22;58645;43.068;25.610;2022-11-11T07:32:32;8.40;99.90
70986;DHT22;58645;43.068;25.610;2022-11-11T07:34:58;8.30;99.90
70986;DHT22;58645;43.068;25.610;2022-11-11T07:37:23;8.30;99.90
70986;DHT22;58645;43.068;25.610;2022-11-11T07:39:51;8.30;99.90
70986;DHT22;58645;43.068;25.610;2022-11-11T07:42:20;8.30;99.90
70986;DHT22;58645;43.068;25.610;2022-11-11T07:45:04;8.20;99.90
70986;DHT22;58645;43.068;25.610;2022-11-11T07:47:30;8.20;99.90
70986;DHT22;58645;43.068;25.610;2022-11-11T07:53:48;7.90;99.90
70986;DHT22;58645;43.068;25.610;2022-11-11T07:56:15;8.40;99.90
70986;DHT22;58645;43.068;25.610;2022-11-11T07:58:42;8.60;99.90
70986;DHT22;58645;43.068;25.610;2022-11-11T08:01:10;8.60;99.90
70986;DHT22;58645;43.068;25.610;2022-11-11T08:03:36;8.70;99.90
70986;DHT22;58645;43.068;25.610;2022-11-11T08:06:18;8.70;99.90
70986;DHT22;58645;43.068;25.610;2022-11-11T08:08:44;8.80;99.90
70986;DHT22;58645;43.068;25.610;2022-11-11T08:11:11;8.80;99.90
70986;DHT22;58645;43.068;25.610;2022-11-11T08:13:36;8.80;99.90
70986;DHT22;58645;43.068;25.610;2022-11-11T08:16:09;8.80;99.90
70986;DHT22;58645;43.068;25.610;2022-11-11T08:18:35;8.80;99.90
70986;DHT22;58645;43.068;25.610;2022-11-11T08:21:02;8.80;99.90
70986;DHT22;58645;43.068;25.610;2022-11-11T08:23:28;8.90;99.90
70986;DHT22;58645;43.068;25.610;2022-11-11T08:28:24;9.00;99.90
70986;DHT22;58645;43.068;25.610;2022-11-11T08:30:50;9.00;99.90
70986;DHT22;58645;43.068;25.610;2022-11-11T08:33:16;9.10;99.90
70986;DHT22;58645;43.068;25.610;2022-11-11T08:35:41;9.20;99.90
70986;DHT22;58645;43.068;25.610;2022-11-11T08:38:08;9.20;99.90
70986;DHT22;58645;43.068;25.610;2022-11-11T08:40:33;9.20;99.90
70986;DHT22;58645;43.068;25.610;2022-11-11T08:42:59;9.30;99.90
70986;DHT22;58645;43.068;25.610;2022-11-11T08:45:25;9.30;99.90
70986;DHT22;58645;43.068;25.610;2022-11-11T08:47:51;9.40;99.90
70986;DHT22;58645;43.068;25.610;2022-11-11T08:50:17;9.50;99.90
70986;DHT22;58645;43.068;25.610;2022-11-11T08:52:50;9.60;99.90
70986;DHT22;58645;43.068;25.610;2022-11-11T08:55:17;9.30;99.90
70986;DHT22;58645;43.068;25.610;2022-11-11T08:57:43;9.70;99.90
70986;DHT22;58645;43.068;25.610;2022-11-11T09:00:12;9.80;99.90
70986;DHT22;58645;43.068;25.610;2022-11-11T09:02:38;9.80;99.90
70986;DHT22;58645;43.068;25.610;2022-11-11T09:05:04;9.80;99.90
70986;DHT22;58645;43.068;25.610;2022-11-11T09:07:31;9.90;99.90
70986;DHT22;58645;43.068;25.610;2022-11-11T09:09:57;9.90;99.90
70986;DHT22;58645;43.068;25.610;2022-11-11T09:12:23;10.00;99.90
70986;DHT22;58645;43.068;25.610;2022-11-11T09:14:49;10.00;99.90
70986;DHT22;58645;43.068;25.610;2022-11-11T09:17:15;10.10;99.90
70986;DHT22;58645;43.068;25.610;2022-11-11T09:19:41;10.10;99.90
70986;DHT22;58645;43.068;25.610;2022-11-11T09:22:07;10.20;99.90
70986;DHT22;58645;43.068;25.610;2022-11-11T09:24:32;10.20;99.90
70986;DHT22;58645;43.068;25.610;2022-11-11T09:26:58;10.30;99.90
70986;DHT22;58645;43.068;25.610;2022-11-11T09:29:27;10.30;99.90
70986;DHT22;58645;43.068;25.610;2022-11-11T09:31:56;10.30;99.90
70986;DHT22;58645;43.068;25.610;2022-11-11T09:34:22;10.40;99.90
70986;DHT22;58645;43.068;25.610;2022-11-11T09:36:48;10.50;99.90
70986;DHT22;58645;43.068;25.610;2022-11-11T09:39:14;10.50;99.90
70986;DHT22;58645;43.068;25.610;2022-11-11T09:49:57;10.70;99.90
70986;DHT22;58645;43.068;25.610;2022-11-11T09:52:46;10.80;99.90
70986;DHT22;58645;43.068;25.610;2022-11-11T09:55:37;10.70;99.90
70986;DHT22;58645;43.068;25.610;2022-11-11T09:58:16;10.70;99.90
70986;DHT22;58645;43.068;25.610;2022-11-11T10:00:45;10.70;99.90
70986;DHT22;58645;43.068;25.610;2022-11-11T10:03:16;10.70;99.90
70986;DHT22;58645;43.068;25.610;2022-11-11T10:08:41;10.60;99.90
70986;DHT22;58645;43.068;25.610;2022-11-11T10:11:20;10.60;99.90
70986;DHT22;58645;43.068;25.610;2022-11-11T10:13:47;10.60;99.90
70986;DHT22;58645;43.068;25.610;2022-11-11T10:16:27;10.60;99.90
70986;DHT22;58645;43.068;25.610;2022-11-11T10:19:27;10.60;99.90
70986;DHT22;58645;43.068;25.610;2022-11-11T10:21:58;10.60;99.90
70986;DHT22;58645;43.068;25.610;2022-11-11T10:24:51;10.60;99.90
70986;DHT22;58645;43.068;25.610;2022-11-11T10:27:20;10.40;99.90
70986;DHT22;58645;43.068;25.610;2022-11-11T10:29:47;10.70;99.90
70986;DHT22;58645;43.068;25.610;2022-11-11T10:32:33;10.70;99.90
70986;DHT22;58645;43.068;25.610;2022-11-11T10:35:14;10.70;99.90
70986;DHT22;58645;43.068;25.610;2022-11-11T10:37:42;10.80;99.90
70986;DHT22;58645;43.068;25.610;2022-11-11T10:40:21;10.90;99.90
70986;DHT22;58645;43.068;25.610;2022-11-11T10:42:48;10.90;99.90
70986;DHT22;58645;43.068;25.610;2022-11-11T10:45:24;11.00;99.90
70986;DHT22;58645;43.068;25.610;2022-11-11T10:48:06;11.00;99.90
70986;DHT22;58645;43.068;25.610;2022-11-11T10:50:40;11.00;99.90
70986;DHT22;58645;43.068;25.610;2022-11-11T10:53:20;11.10;99.90
70986;DHT22;58645;43.068;25.610;2022-11-11T10:58:36;11.30;99.90
70986;DHT22;58645;43.068;25.610;2022-11-11T11:01:05;11.30;99.90
70986;DHT22;58645;43.068;25.610;2022-11-11T11:03:35;11.30;99.90
70986;DHT22;58645;43.068;25.610;2022-11-11T11:12:33;11.40;99.90
70986;DHT22;58645;43.068;25.610;2022-11-11T11:15:22;11.40;99.90
70986;DHT22;58645;43.068;25.610;2022-11-11T11:17:53;11.40;99.90
70986;DHT22;58645;43.068;25.610;2022-11-11T11:20:21;11.40;99.90
70986;DHT22;58645;43.068;25.610;2022-11-11T11:22:55;11.40;99.90
70986;DHT22;58645;43.068;25.610;2022-11-11T11:25:23;11.50;99.90
70986;DHT22;58645;43.068;25.610;2022-11-11T11:27:51;11.50;99.90
70986;DHT22;58645;43.068;25.610;2022-11-11T11:30:23;11.40;99.90
70986;DHT22;58645;43.068;25.610;2022-11-11T11:33:03;11.50;99.90
70986;DHT22;58645;43.068;25.610;2022-11-11T11:35:41;11.40;99.90
70986;DHT22;58645;43.068;25.610;2022-11-11T11:38:13;11.40;99.90
70986;DHT22;58645;43.068;25.610;2022-11-11T11:43:33;11.40;99.90
70986;DHT22;58645;43.068;25.610;2022-11-11T11:46:01;11.40;99.90
70986;DHT22;58645;43.068;25.610;2022-11-11T11:56:41;11.30;99.90
70986;DHT22;58645;43.068;25.610;2022-11-11T12:08:01;11.30;99.90
70986;DHT22;58645;43.068;25.610;2022-11-11T12:19:00;11.20;99.90
70986;DHT22;58645;43.068;25.610;2022-11-11T12:27:04;11.20;99.90
70986;DHT22;58645;43.068;25.610;2022-11-11T12:32:27;11.20;99.90
70986;DHT22;58645;43.068;25.610;2022-11-11T12:44:06;11.20;99.90
70986;DHT22;58645;43.068;25.610;2022-11-11T12:55:22;11.20;99.90
70986;DHT22;58645;43.068;25.610;2022-11-11T13:00:53;11.30;99.90
70986;DHT22;58645;43.068;25.610;2022-11-11T13:17:14;11.30;99.90
70986;DHT22;58645;43.068;25.610;2022-11-11T13:19:43;11.20;99.90
70986;DHT22;58645;43.068;25.610;2022-11-11T13:22:20;11.30;99.90
70986;DHT22;58645;43.068;25.610;2022-11-11T13:24:50;11.30;99.90
70986;DHT22;58645;43.068;25.610;2022-11-11T13:30:10;11.30;99.90
70986;DHT22;58645;43.068;25.610;2022-11-11T13:32:51;11.30;99.90
70986;DHT22;58645;43.068;25.610;2022-11-11T13:35:43;11.30;99.90
70986;DHT22;58645;43.068;25.610;2022-11-11T13:41:38;11.40;99.90
70986;DHT22;58645;43.068;25.610;2022-11-11T13:44:07;11.40;99.90
70986;DHT22;58645;43.068;25.610;2022-11-11T13:46:58;11.50;99.90
70986;DHT22;58645;43.068;25.610;2022-11-11T13:49:37;11.50;99.90
70986;DHT22;58645;43.068;25.610;2022-11-11T13:52:26;11.50;99.90
70986;DHT22;58645;43.068;25.610;2022-11-11T13:54:59;11.40;99.90
70986;DHT22;58645;43.068;25.610;2022-11-11T13:57:27;11.40;99.90
70986;DHT22;58645;43.068;25.610;2022-11-11T14:02:32;11.40;99.90
70986;DHT22;58645;43.068;25.610;2022-11-11T14:15:51;11.30;99.90
70986;DHT22;58645;43.068;25.610;2022-11-11T14:20:48;11.30;99.90
70986;DHT22;58645;43.068;25.610;2022-11-11T14:25:48;11.30;99.90
70986;DHT22;58645;43.068;25.610;2022-11-11T14:52:20;11.00;99.90
70986;DHT22;58645;43.068;25.610;2022-11-11T14:57:37;11.00;99.90
70986;DHT22;58645;43.068;25.610;2022-11-11T15:03:06;11.00;99.90
70986;DHT22;58645;43.068;25.610;2022-11-11T15:08:53;11.00;99.90
70986;DHT22;58645;43.068;25.610;2022-11-11T15:36:48;10.70;99.90
70986;DHT22;58645;43.068;25.610;2022-11-11T15:39:18;10.70;99.90
70986;DHT22;58645;43.068;25.610;2022-11-11T15:41:47;10.70;99.90
70986;DHT22;58645;43.068;25.610;2022-11-11T15:44:24;10.70;99.90
70986;DHT22;58645;43.068;25.610;2022-11-11T15:46:52;10.70;99.90
70986;DHT22;58645;43.068;25.610;2022-11-11T15:52:07;10.60;99.90
70986;DHT22;58645;43.068;25.610;2022-11-11T15:54:34;10.60;99.90
70986;DHT22;58645;43.068;25.610;2022-11-11T15:57:33;11.00;99.90
70986;DHT22;58645;43.068;25.610;2022-11-11T16:00:02;10.60;99.90
70986;DHT22;58645;43.068;25.610;2022-11-11T16:02:35;10.60;99.90
70986;DHT22;58645;43.068;25.610;2022-11-11T16:05:09;10.60;99.90
70986;DHT22;58645;43.068;25.610;2022-11-11T16:07:42;10.50;99.90
70986;DHT22;58645;43.068;25.610;2022-11-11T16:10:16;10.50;99.90
70986;DHT22;58645;43.068;25.610;2022-11-11T16:12:56;10.50;99.90
70986;DHT22;58645;43.068;25.610;2022-11-11T16:18:21;10.50;99.90
70986;DHT22;58645;43.068;25.610;2022-11-11T16:21:09;10.50;99.90
70986;DHT22;58645;43.068;25.610;2022-11-11T16:23:37;10.50;99.90
70986;DHT22;58645;43.068;25.610;2022-11-11T16:26:03;10.50;99.90
70986;DHT22;58645;43.068;25.610;2022-11-11T16:28:40;10.40;99.90
70986;DHT22;58645;43.068;25.610;2022-11-11T16:33:51;10.40;99.90
70986;DHT22;58645;43.068;25.610;2022-11-11T16:36:16;10.40;99.90
70986;DHT22;58645;43.068;25.610;2022-11-11T16:38:42;10.40;99.90
70986;DHT22;58645;43.068;25.610;2022-11-11T16:41:30;10.40;99.90
70986;DHT22;58645;43.068;25.610;2022-11-11T16:43:56;10.40;99.90
70986;DHT22;58645;43.068;25.610;2022-11-11T16:51:54;10.40;99.90
70986;DHT22;58645;43.068;25.610;2022-11-11T16:54:21;10.30;99.90
70986;DHT22;58645;43.068;25.610;2022-11-11T16:56:52;10.40;99.90
70986;DHT22;58645;43.068;25.610;2022-11-11T16:59:33;10.30;99.90
70986;DHT22;58645;43.068;25.610;2022-11-11T17:02:01;10.30;99.90
70986;DHT22;58645;43.068;25.610;2022-11-11T17:04:45;10.30;99.90
70986;DHT22;58645;43.068;25.610;2022-11-11T17:07:40;10.40;99.90
70986;DHT22;58645;43.068;25.610;2022-11-11T17:12:33;10.30;99.90
70986;DHT22;58645;43.068;25.610;2022-11-11T17:15:00;10.30;99.90
70986;DHT22;58645;43.068;25.610;2022-11-11T17:17:28;10.30;99.90
70986;DHT22;58645;43.068;25.610;2022-11-11T17:20:01;10.30;99.90
70986;DHT22;58645;43.068;25.610;2022-11-11T17:22:27;10.30;99.90
70986;DHT22;58645;43.068;25.610;2022-11-11T17:24:53;10.30;99.90
70986;DHT22;58645;43.068;25.610;2022-11-11T17:27:19;10.30;99.90
70986;DHT22;58645;43.068;25.610;2022-11-11T17:29:44;10.30;99.90
70986;DHT22;58645;43.068;25.610;2022-11-11T17:32:10;10.30;99.90
70986;DHT22;58645;43.068;25.610;2022-11-11T17:34:36;10.30;99.90
70986;DHT22;58645;43.068;25.610;2022-11-11T17:37:01;10.30;99.90
70986;DHT22;58645;43.068;25.610;2022-11-11T17:39:27;10.30;99.90
70986;DHT22;58645;43.068;25.610;2022-11-11T17:41:53;10.30;99.90
70986;DHT22;58645;43.068;25.610;2022-11-11T17:44:19;10.40;99.90
70986;DHT22;58645;43.068;25.610;2022-11-11T17:46:44;10.40;99.90
70986;DHT22;58645;43.068;25.610;2022-11-11T17:49:10;10.40;99.90
70986;DHT22;58645;43.068;25.610;2022-11-11T17:51:36;10.40;99.90
70986;DHT22;58645;43.068;25.610;2022-11-11T17:54:02;10.40;99.90
70986;DHT22;58645;43.068;25.610;2022-11-11T17:56:28;10.30;99.90
70986;DHT22;58645;43.068;25.610;2022-11-11T17:58:53;10.30;99.90
70986;DHT22;58645;43.068;25.610;2022-11-11T18:01:20;10.30;99.90
70986;DHT22;58645;43.068;25.610;2022-11-11T18:03:46;10.30;99.90
70986;DHT22;58645;43.068;25.610;2022-11-11T18:06:12;10.40;99.90
70986;DHT22;58645;43.068;25.610;2022-11-11T18:08:37;10.30;99.90
70986;DHT22;58645;43.068;25.610;2022-11-11T18:11:06;10.30;99.90
70986;DHT22;58645;43.068;25.610;2022-11-11T18:13:35;10.30;99.90
70986;DHT22;58645;43.068;25.610;2022-11-11T18:16:01;10.30;99.90
70986;DHT22;58645;43.068;25.610;2022-11-11T18:18:28;10.40;99.90
70986;DHT22;58645;43.068;25.610;2022-11-11T18:21:00;10.30;99.90
70986;DHT22;58645;43.068;25.610;2022-11-11T18:23:29;10.30;99.90
70986;DHT22;58645;43.068;25.610;2022-11-11T18:25:55;10.30;99.90
70986;DHT22;58645;43.068;25.610;2022-11-11T18:28:20;10.30;99.90
70986;DHT22;58645;43.068;25.610;2022-11-11T18:30:46;10.30;99.90
70986;DHT22;58645;43.068;25.610;2022-11-11T18:33:12;10.20;99.90
70986;DHT22;58645;43.068;25.610;2022-11-11T18:35:37;10.20;99.90
70986;DHT22;58645;43.068;25.610;2022-11-11T18:38:03;10.30;99.90
70986;DHT22;58645;43.068;25.610;2022-11-11T18:40:29;10.20;99.90
70986;DHT22;58645;43.068;25.610;2022-11-11T18:42:55;10.20;99.90
70986;DHT22;58645;43.068;25.610;2022-11-11T18:45:20;10.20;99.90
70986;DHT22;58645;43.068;25.610;2022-11-11T18:47:47;10.20;99.90
70986;DHT22;58645;43.068;25.610;2022-11-11T18:50:13;10.30;99.90
70986;DHT22;58645;43.068;25.610;2022-11-11T18:52:39;10.20;99.90
70986;DHT22;58645;43.068;25.610;2022-11-11T18:55:05;10.20;99.90
70986;DHT22;58645;43.068;25.610;2022-11-11T18:57:31;10.20;99.90
70986;DHT22;58645;43.068;25.610;2022-11-11T18:59:57;10.20;99.90
70986;DHT22;58645;43.068;25.610;2022-11-11T19:02:23;10.20;99.90
70986;DHT22;58645;43.068;25.610;2022-11-11T19:04:48;10.20;99.90
70986;DHT22;58645;43.068;25.610;2022-11-11T19:07:14;10.20;99.90
70986;DHT22;58645;43.068;25.610;2022-11-11T19:09:40;10.20;99.90
70986;DHT22;58645;43.068;25.610;2022-11-11T19:12:05;10.20;99.90
70986;DHT22;58645;43.068;25.610;2022-11-11T19:14:31;10.10;99.90